• Join FlightAware (Why Join?)
  • Login
  • US Flag 
09:32PM EST


 

Airport Tracker/Info


-or-


 

Live Flight TrackerFlight Track Log ✈ SWA1457 ✈ 21-Jun-2013 ✈ KHOU - KSEA

Flight Track Log - Related Links

Times and Time Zones

All times are in EDT time to prevent confusion due to time zone crossing. See the SWA1457 flight status page for this flight to view local times or setup timezone preferences in your user account.

Time Position Orientation Groundspeed Altitude Reporting Facility
EDT Latitude Longitude Course Direction KTS MPH feet Rate Location/Type
03:26PM 29.6308 -95.2633 82° East 157 181 900  Level Houston Center
03:27PM 29.6344 -95.2339 82° East 200 230 1,800 2,640 Climbing Houston Center
03:28PM 29.6983 -95.2214 10° North 238 274 5,000 2,940 Climbing Houston Center
03:29PM 29.7672 -95.2153 North 249 287 7,900 2,580 Climbing Houston Center
03:30PM 29.8528 -95.2425 345° North 286 329 10,900 2,700 Climbing Houston Center
03:31PM 29.9214 -95.2914 328° Northwest 292 336 14,100 2,340 Climbing Houston Center
03:32PM 30.0242 -95.3508 333° Northwest 348 400 15,800 1,800 Climbing Houston Center
03:33PM 30.1200 -95.4075 333° Northwest 383 441 17,900 2,100 Climbing Houston Center
03:34PM 30.2200 -95.4672 333° Northwest 398 458 20,200 2,160 Climbing Houston Center
03:35PM 30.3206 -95.5275 333° Northwest 405 466 22,400 1,920 Climbing Houston Center
03:36PM 30.4261 -95.5894 333° Northwest 418 481 24,200 1,860 Climbing Houston Center
03:37PM 30.5550 -95.6647 333° Northwest 435 501 26,300 1,740 Climbing Houston Center
03:38PM 30.6681 -95.7236 336° Northwest 445 512 27,900 1,320 Climbing Houston Center
03:39PM 30.7767 -95.7817 335° Northwest 451 519 29,100 1,320 Climbing Houston Center
03:40PM 30.8956 -95.8450 335° Northwest 464 534 30,700 1,740 Climbing Houston Center
03:41PM 31.0369 -95.9206 335° Northwest 463 533 32,700 1,920 Climbing Houston Center
03:42PM 31.1517 -95.9797 336° Northwest 454 522 34,700 1,620 Climbing Houston Center
03:43PM 31.2689 -96.0231 342° North 443 510 36,100 660 Climbing Houston Center
03:44PM 31.3850 -96.0689 341° North 438 504 36,100  Level Houston Center
03:45PM 31.5144 -96.1186 342° North 440 506 36,100  Level Houston Center
03:46PM 31.6314 -96.1633 342° North 440 506 36,100  Level Houston Center
03:47PM 31.7489 -96.2097 341° North 441 507 36,100  Level Houston Center
03:48PM 31.8664 -96.2558 342° North 442 509 36,100  Level Houston Center
03:49PM 31.9850 -96.3039 341° North 438 504 36,100  Level Fort Worth Center
03:50PM 32.0797 -96.3861 324° Northwest 425 489 36,100  Level Fort Worth Center
03:51PM 32.1642 -96.4881 314° West 425 489 36,100  Level Fort Worth Center
03:52PM 32.2442 -96.5881 313° West 425 489 36,100  Level Fort Worth Center
03:53PM 32.3197 -96.6783 315° West 420 483 36,100  Level Fort Worth Center
03:54PM 32.4122 -96.7908 314° West 425 489 36,100  Level Fort Worth Center
03:55PM 32.4878 -96.8789 316° Northwest 420 483 36,100  Level Fort Worth Center
03:56PM 32.5781 -96.9917 314° West 420 483 36,100  Level Fort Worth Center
03:57PM 32.6533 -97.0853 314° West 420 483 36,100  Level Fort Worth Center
03:58PM 32.7475 -97.1986 315° West 425 489 36,100  Level Fort Worth Center
03:59PM 32.8250 -97.2922 315° West 430 495 36,100  Level Fort Worth Center
04:00PM 32.9189 -97.4036 315° West 436 502 36,100  Level Fort Worth Center
04:01PM 32.9983 -97.5000 315° West 436 502 36,100  Level Fort Worth Center
04:02PM 33.0733 -97.5969 313° West 441 507 36,100  Level Fort Worth Center
04:03PM 33.1711 -97.7236 313° West 441 507 36,100  Level Fort Worth Center
04:04PM 33.2481 -97.8183 314° West 441 507 36,100  Level Fort Worth Center
04:05PM 33.3394 -97.9331 314° West 441 507 36,100  Level Fort Worth Center
04:06PM 33.4164 -98.0281 314° West 436 502 36,100  Level Fort Worth Center
04:07PM 33.5097 -98.1458 314° West 443 510 36,100  Level Fort Worth Center
04:08PM 33.5861 -98.2414 314° West 443 510 36,100  Level Fort Worth Center
04:09PM 33.6711 -98.3494 313° West 443 510 36,100  Level Fort Worth Center
04:10PM 33.7619 -98.4678 313° West 443 510 36,100  Level Fort Worth Center
04:11PM 33.8444 -98.5764 312° West 443 510 36,100  Level Fort Worth Center
04:12PM 33.9311 -98.6878 313° West 443 510 36,100  Level Fort Worth Center
04:13PM 33.9989 -98.7714 314° West 443 510 36,100  Level Fort Worth Center
04:14PM 34.0833 -98.8706 316° Northwest 430 495 36,100  Level Fort Worth Center
04:15PM 34.1717 -98.9925 311° West 437 503 36,100  Level Fort Worth Center
04:16PM 34.2558 -99.0994 314° West 437 503 36,100  Level Fort Worth Center
04:17PM 34.3461 -99.2169 313° West 429 494 36,100  Level Fort Worth Center
04:18PM 34.4197 -99.3142 313° West 428 493 36,100  Level Fort Worth Center
04:19PM 34.5036 -99.4169 315° West 428 493 36,100  Level Fort Worth Center
04:20PM 34.5833 -99.5222 313° West 428 493 36,100  Level Fort Worth Center
04:23PM 34.7800 -99.7794 313° West 436 502 36,100  Level Albuquerque Center
04:24PM 34.8619 -99.8889 312° West 436 502 36,100  Level Albuquerque Center
04:25PM 34.9458 -99.9986 313° West 438 504 36,100  Level Albuquerque Center
04:26PM 35.0283 -100.1100 312° West 440 506 36,100  Level Albuquerque Center
04:27PM 35.1117 -100.2211 313° West 440 506 36,100  Level Albuquerque Center
04:28PM 35.2125 -100.3550 313° West 442 509 36,100  Level Albuquerque Center
04:29PM 35.2950 -100.4664 312° West 440 506 36,100  Level Albuquerque Center
04:30PM 35.3775 -100.5775 312° West 439 505 36,100  Level Albuquerque Center
04:31PM 35.4636 -100.6919 313° West 444 511 36,100  Level Albuquerque Center
04:32PM 35.5447 -100.8019 312° West 439 505 36,100  Level Albuquerque Center
04:33PM 35.6247 -100.9125 312° West 437 503 36,100  Level Albuquerque Center
04:34PM 35.7044 -101.0228 312° West 436 502 36,100  Level Albuquerque Center
04:35PM 35.8028 -101.1569 312° West 441 507 36,100  Level Albuquerque Center
04:36PM 35.8842 -101.2692 312° West 442 509 36,100  Level Albuquerque Center
04:37PM 35.9656 -101.3800 312° West 440 506 36,100  Level Albuquerque Center
04:38PM 36.0461 -101.4903 312° West 438 504 36,100  Level Albuquerque Center
04:39PM 36.1256 -101.6042 311° West 439 505 36,100  Level Albuquerque Center
04:40PM 36.2064 -101.7169 312° West 439 505 36,100  Level Albuquerque Center
04:41PM 36.3014 -101.8500 312° West 435 501 36,100  Level Albuquerque Center
04:42PM 36.3811 -101.9608 312° West 433 498 36,100  Level Albuquerque Center
04:43PM 36.4600 -102.0722 311° West 432 497 36,100  Level Albuquerque Center
04:44PM 36.5392 -102.1850 311° West 433 498 36,100  Level Albuquerque Center
04:45PM 36.6161 -102.2947 311° West 426 490 36,100  Level Albuquerque Center
04:46PM 36.6933 -102.4042 311° West 423 487 36,100  Level Albuquerque Center
04:47PM 36.7847 -102.5333 311° West 422 486 36,100  Level Albuquerque Center
04:49PM 36.8581 -102.6422 310° West 425 489 36,100  Level Albuquerque Center
04:50PM 36.9450 -102.7642 312° West 422 486 36,100  Level Albuquerque Center
04:51PM 37.0181 -102.8706 311° West 421 484 36,100  Level Albuquerque Center
04:52PM 37.0911 -102.9778 311° West 422 486 36,100  Level Albuquerque Center
04:53PM 37.1769 -103.1019 311° West 422 486 36,100  Level Albuquerque Center
04:54PM 37.2503 -103.2081 311° West 422 486 36,100  Level Albuquerque Center
04:55PM 37.3361 -103.3328 311° West 422 486 36,100  Level Albuquerque Center
04:56PM 37.4589 -103.5125 311° West 426 490 36,100  Level Denver Center
04:57PM 37.5325 -103.6222 310° West 429 494 36,100  Level Denver Center
04:58PM 37.6186 -103.7492 311° West 429 494 36,100  Level Denver Center
04:59PM 37.6919 -103.8575 311° West 429 494 36,100  Level Denver Center
05:01PM 37.7791 -103.9832 311° West  Level FlightAware Approximate
05:04PM 38.0000 -104.3233 309° West 416 479 36,100  Level Denver Center
05:05PM 38.0847 -104.4492 311° West 420 483 36,100  Level Denver Center
05:06PM 38.1572 -104.5594 310° West 423 487 36,100  Level Denver Center
05:07PM 38.2403 -104.6864 310° West 420 483 36,100  Level Denver Center
05:08PM 38.3120 -104.7688 309° West  Level FlightAware Approximate
05:08PM 38.3106 -104.7950 310° West 417 480 36,100  Level Denver Center
05:09PM 38.3852 -104.8846 309° West  Level FlightAware Approximate
05:09PM 38.3894 -104.9164 310° West 415 478 36,100  Level Denver Center
05:10PM 38.4625 -105.0289 310° West 412 474 36,100  Level Denver Center
05:11PM 38.5347 -105.1414 309° West 410 472 36,100  Level Denver Center
05:12PM 38.6089 -105.2558 310° West 414 476 36,100  Level Denver Center
05:13PM 38.6828 -105.3711 309° West 417 480 36,100  Level Denver Center
05:14PM 38.7725 -105.5128 309° West 424 488 36,100  Level Denver Center
05:15PM 38.8478 -105.6297 310° West 424 488 36,100  Level Denver Center
05:16PM 38.9231 -105.7472 309° West 425 489 36,100  Level Denver Center
05:17PM 38.9972 -105.8669 309° West 427 491 36,100  Level Denver Center
05:18PM 39.0739 -105.9886 309° West 435 501 36,100  Level Denver Center
05:19PM 39.1506 -106.1119 309° West 438 504 36,100  Level Denver Center
05:20PM 39.2356 -106.2456 309° West 439 505 36,100  Level Denver Center
05:21PM 39.3183 -106.3817 308° West 435 501 36,100  Level Denver Center
05:22PM 39.3928 -106.4986 310° West 437 503 36,100  Level Denver Center
05:23PM 39.4750 -106.6336 308° West 425 489 36,100  Level Denver Center
05:24PM 39.5450 -106.7458 309° West 420 483 36,100  Level Denver Center
05:25PM 39.6244 -106.8786 308° West 419 482 36,100  Level Denver Center
05:26PM 39.6939 -106.9919 309° West 418 481 36,100  Level Denver Center
05:27PM 39.7656 -107.1111 308° West 419 482 36,100  Level Denver Center
05:28PM 39.8422 -107.2372 308° West 415 478 36,100  Level Denver Center
05:29PM 39.9231 -107.3703 308° West 419 482 36,100  Level Denver Center
05:30PM 39.9922 -107.4847 308° West 420 483 36,100  Level Denver Center
05:31PM 40.0611 -107.6006 308° West 423 487 36,100  Level Denver Center
05:32PM 40.1417 -107.7378 308° West 429 494 36,100  Level Denver Center
05:34PM 40.2108 -107.8547 308° West 426 490 36,100  Level Denver Center
05:35PM 40.2939 -107.9953 308° West 436 502 36,100  Level Denver Center
05:36PM 40.3642 -108.1144 308° West 435 501 36,100  Level Denver Center
05:37PM 40.4450 -108.2536 307° West 432 497 36,100  Level Denver Center
05:38PM 40.5142 -108.3719 308° West 429 494 36,100  Level Denver Center
05:39PM 40.5947 -108.5106 307° West 429 494 36,100  Level Denver Center
05:40PM 40.6631 -108.6281 308° West 423 487 36,100  Level Denver Center
05:41PM 40.7397 -108.7622 307° West 423 487 36,100  Level Denver Center
05:42PM 40.8178 -108.8994 307° West 421 484 36,100  Level Denver Center
05:43PM 40.8858 -109.0183 307° West 421 484 36,100  Level Denver Center
05:44PM 40.9417 -109.1158 307° West 419 482 36,100  Level Salt Lake Center
05:45PM 41.0083 -109.2322 307° West 414 476 36,100  Level Salt Lake Center
05:46PM 41.0858 -109.3711 307° West 415 478 36,100  Level Salt Lake Center
05:47PM 41.1514 -109.4886 307° West 413 475 36,100  Level Salt Lake Center
05:48PM 41.2181 -109.6078 307° West 415 478 36,100  Level Salt Lake Center
05:49PM 41.2964 -109.7483 307° West 420 483 36,100 -60 Level Salt Lake Center
05:50PM 41.3631 -109.8681 307° West 420 483 36,000  Descending Salt Lake Center
05:51PM 41.4408 -110.0075 307° West 418 481 36,100  Climbing Salt Lake Center
05:52PM 41.5058 -110.1278 306° West 417 480 36,100  Level Salt Lake Center
05:53PM 41.5825 -110.2661 307° West 414 476 36,100  Level Salt Lake Center
05:54PM 41.6469 -110.3858 306° West 415 478 36,100  Level Salt Lake Center
05:55PM 41.7122 -110.5031 307° West 411 473 36,100  Level Salt Lake Center
05:56PM 41.7853 -110.6400 306° West 405 466 36,100  Level Salt Lake Center
05:57PM 41.8497 -110.7575 306° West 408 470 36,100  Level Salt Lake Center
05:58PM 41.9231 -110.8967 305° West 408 470 36,100  Level Salt Lake Center
05:59PM 41.9878 -111.0161 306° West 407 468 36,100  Level Salt Lake Center
06:00PM 42.0544 -111.1406 306° West 410 472 36,100  Level Salt Lake Center
06:01PM 42.1197 -111.2639 306° West 408 470 36,100  Level Salt Lake Center
06:02PM 42.1978 -111.4128 305° West 407 468 36,100  Level Salt Lake Center
06:03PM 42.2636 -111.5375 306° West 408 470 36,100  Level Salt Lake Center
06:04PM 42.3303 -111.6625 306° West 412 474 36,100  Level Salt Lake Center
06:05PM 42.3975 -111.7914 305° West 419 482 36,100  Level Salt Lake Center
06:06PM 42.4628 -111.9178 305° West 414 476 36,100  Level Salt Lake Center
06:07PM 42.5286 -112.0461 305° West 416 479 36,100  Level Salt Lake Center
06:08PM 42.5950 -112.1736 305° West 417 480 36,100  Level Salt Lake Center
06:09PM 42.6744 -112.3294 305° West 420 483 36,100  Level Salt Lake Center
06:10PM 42.7422 -112.4600 305° West 421 484 36,100  Level Salt Lake Center
06:11PM 42.8064 -112.5850 305° West 421 484 36,100  Level Salt Lake Center
06:12PM 42.8794 -112.7317 304° West 420 483 36,100  Level Salt Lake Center
06:13PM 42.9442 -112.8592 305° West 425 489 36,100  Level Salt Lake Center
06:14PM 43.0175 -113.0053 305° West 421 484 36,100  Level Salt Lake Center
06:16PM 43.0789 -113.1278 304° West 412 474 36,100  Level Salt Lake Center
06:17PM 43.1425 -113.2558 304° West 420 483 36,100  Level Salt Lake Center
06:18PM 43.2153 -113.4047 304° West 422 486 36,100  Level Salt Lake Center
06:19PM 43.2819 -113.5411 304° West 451 519 36,100  Level Salt Lake Center
06:20PM 43.3547 -113.6922 304° West 428 493 36,100  Level Salt Lake Center
06:21PM 43.4186 -113.8236 304° West 432 497 36,100  Level Salt Lake Center
06:22PM 43.4817 -113.9556 303° West 432 497 36,100  Level Salt Lake Center
06:23PM 43.5558 -114.1075 304° West 427 491 36,100  Level Salt Lake Center
06:24PM 43.6183 -114.2378 304° West 426 490 36,100  Level Salt Lake Center
06:25PM 43.6911 -114.3903 303° West 425 489 36,100  Level Salt Lake Center
06:26PM 43.7600 -114.5331 304° West 437 503 36,100  Level Salt Lake Center
06:27PM 43.8292 -114.6778 304° West 434 499 36,100  Level Salt Lake Center
06:28PM 43.8972 -114.8219 303° West 434 499 36,100  Level Salt Lake Center
06:29PM 43.9606 -114.9581 303° West 434 499 36,100  Level Salt Lake Center
06:30PM 44.0292 -115.1075 303° West 440 506 36,100  Level Salt Lake Center
06:31PM 44.0986 -115.2572 303° West 444 511 36,100  Level Salt Lake Center
06:32PM 44.1681 -115.4064 303° West 444 511 36,100 -60 Level Salt Lake Center
06:33PM 44.2258 -115.5275 304° West 437 503 36,000 -60 Descending Salt Lake Center
06:34PM 44.2914 -115.6706 303° West 439 505 36,000  Level Salt Lake Center
06:35PM 44.3700 -115.8456 302° West 443 510 36,000  Level Salt Lake Center
06:36PM 44.4347 -115.9883 302° West 438 504 36,000  Level Salt Lake Center
06:37PM 44.4961 -116.1294 301° West 438 504 36,100  Climbing Salt Lake Center
06:38PM 44.5606 -116.2719 302° West 434 499 36,100  Level Salt Lake Center
06:39PM 44.6256 -116.4142 303° West 435 501 36,100  Level Salt Lake Center
06:40PM 44.6881 -116.5572 302° West 432 497 36,100  Level Salt Lake Center
06:41PM 44.7642 -116.7267 302° West 429 494 36,100 -60 Level Salt Lake Center
06:42PM 44.8269 -116.8683 302° West 428 493 36,000  Descending Salt Lake Center
06:43PM 44.8875 -117.0086 301° West 424 488 36,100  Climbing Salt Lake Center
06:44PM 44.9489 -117.1522 301° West 426 490 36,100  Level Salt Lake Center
06:45PM 45.0122 -117.2981 302° West 433 498 36,100  Level Salt Lake Center
06:46PM 45.0744 -117.4419 302° West 433 498 36,100  Level Salt Lake Center
06:47PM 45.1356 -117.5861 301° West 430 495 36,100  Level Salt Lake Center
06:48PM 45.2094 -117.7589 301° West 430 495 36,100  Level Salt Lake Center
06:49PM 45.2700 -117.9036 301° West 429 494 36,100  Level Salt Lake Center
06:50PM 45.3303 -118.0472 301° West 427 491 36,100  Level Salt Lake Center
06:51PM 45.3922 -118.1936 301° West 431 496 36,100  Level Salt Lake Center
06:52PM 45.4519 -118.3381 301° West 429 494 36,100  Level Salt Lake Center
06:54PM 45.5281 -118.4747 309° West 436 502 36,100  Level Salt Lake Center
06:55PM 45.6028 -118.6108 308° West 440 506 36,100  Level Salt Lake Center
06:56PM 45.6933 -118.7764 308° West 441 507 36,100  Level Salt Lake Center
06:57PM 45.7675 -118.9147 308° West 441 507 36,100  Level Salt Lake Center
06:58PM 45.8567 -119.0817 308° West 444 511 36,100  Level Seattle Center
06:59PM 45.9317 -119.2222 308° West 445 512 36,100  Level Seattle Center
07:00PM 46.0228 -119.3950 307° West 451 519 36,100  Level Seattle Center
07:01PM 46.0967 -119.5353 307° West 447 514 36,100  Level Seattle Center
07:02PM 46.1689 -119.6703 308° West 432 497 36,100  Level Seattle Center
07:03PM 46.2394 -119.8050 307° West 425 489 36,100  Level Seattle Center
07:04PM 46.3089 -119.9392 307° West 422 486 36,100  Level Seattle Center
07:05PM 46.3786 -120.0747 307° West 421 484 36,100  Level Seattle Center
07:06PM 46.4481 -120.2089 307° West 420 483 36,100  Level Seattle Center
07:07PM 46.5167 -120.3433 307° West 417 480 36,100  Level Seattle Center
07:08PM 46.5839 -120.4756 307° West 411 473 36,100 -1,020 Level Seattle Center
07:09PM 46.6639 -120.6419 305° West 420 483 34,100 -2,520 Descending Seattle Center
07:10PM 46.7322 -120.7875 304° West 436 502 31,000 -2,160 Descending Seattle Center
07:11PM 46.8000 -120.9336 304° West 436 502 29,800 -1,740 Descending Seattle Center
07:12PM 46.8672 -121.0753 305° West 429 494 27,500 -2,280 Descending Seattle Center
07:13PM 46.9308 -121.2142 304° West 417 480 25,200 -2,280 Descending Seattle Center
07:14PM 46.9944 -121.3453 305° West 400 460 22,900 -2,340 Descending Seattle Center
07:15PM 47.0578 -121.4806 305° West 379 436 20,600 -2,220 Descending Seattle Center
07:16PM 47.1153 -121.6053 304° West 367 422 18,600 -2,160 Descending Seattle Center
07:17PM 47.1717 -121.7272 304° West 359 413 16,300 -1,800 Descending Seattle Center
07:18PM 47.2300 -121.8578 303° West 357 411 15,000 -1,500 Descending Seattle Center
07:19PM 47.2856 -121.9775 304° West 356 410 13,300 -1,380 Descending Seattle Center
07:20PM 47.3417 -122.1014 304° West 339 390 12,200 -1,140 Descending Seattle Center
07:21PM 47.3936 -122.1931 310° West 292 336 11,000 -1,140 Descending Seattle Center
07:22PM 47.4756 -122.2067 354° North 278 320 10,000 -1,140 Descending Seattle Center
07:23PM 47.5408 -122.2094 358° North 254 292 8,800 -1,560 Descending Seattle Center
07:24PM 47.6164 -122.2003 North 253 291 6,900 -1,500 Descending Seattle Center
07:25PM 47.6808 -122.2006 360° North 250 288 5,800 -1,200 Descending Seattle Center
07:26PM 47.6833 -122.2825 273° West 207 238 4,600 -1,140 Descending Seattle Center
07:27PM 47.6269 -122.3078 197° South 215 247 3,400 -1,080 Descending Seattle Center
07:28PM 47.5686 -122.3189 187° South 207 238 2,400 -960 Descending Seattle Center
07:29PM 47.5192 -122.3167 178° South 173 199 1,500 -900 Descending Seattle Center
07:30PM 47.4731 -122.3192 182° South 143 165 700 -600 Descending Seattle Center
07:32PM 47.4361 -122.3194 180° South 149 171 400 -300 Descending Seattle Center
07:33PM 47.4333 -122.3000 90° East  Level FlightAware Approximate